createdAt,value
2018-09-10T00:01:18.798Z,15.80
2018-09-10T00:03:47.587Z,15.76
2018-09-10T00:06:16.273Z,15.85
2018-09-10T00:08:46.251Z,15.71
2018-09-10T00:11:14.925Z,15.74
2018-09-10T00:13:43.571Z,15.75
2018-09-10T00:16:12.230Z,15.91
2018-09-10T00:18:40.875Z,15.78
2018-09-10T00:21:09.525Z,15.72
2018-09-10T00:23:38.320Z,15.71
2018-09-10T00:26:06.962Z,15.61
2018-09-10T00:28:35.655Z,15.61
2018-09-10T00:31:04.399Z,15.61
2018-09-10T00:33:33.124Z,15.49
2018-09-10T00:36:01.813Z,15.54
2018-09-10T00:38:30.471Z,15.41
2018-09-10T00:40:59.131Z,15.62
2018-09-10T00:43:27.787Z,15.54
2018-09-10T00:45:56.507Z,15.55
2018-09-10T00:48:25.176Z,15.52
2018-09-10T00:50:53.809Z,15.48
2018-09-10T00:53:22.513Z,15.54
2018-09-10T00:55:51.186Z,15.45
2018-09-10T00:58:19.879Z,15.61
2018-09-10T01:00:48.614Z,15.60
2018-09-10T01:03:17.303Z,15.49
2018-09-10T01:05:45.968Z,15.38
2018-09-10T01:08:14.644Z,15.44
2018-09-10T01:10:43.285Z,15.38
2018-09-10T01:13:11.963Z,15.42
2018-09-10T01:15:40.608Z,15.52
2018-09-10T01:18:09.365Z,15.48
2018-09-10T01:20:38.028Z,15.45
2018-09-10T01:23:06.731Z,15.57
2018-09-10T01:25:35.436Z,15.43
2018-09-10T01:28:04.132Z,15.42
2018-09-10T01:30:33.277Z,15.46
2018-09-10T01:33:01.940Z,15.61
2018-09-10T01:35:33.245Z,15.69
2018-09-10T01:38:01.959Z,15.80
2018-09-10T01:40:30.658Z,15.67
2018-09-10T01:42:59.284Z,15.56
2018-09-10T01:45:27.922Z,15.68
2018-09-10T01:47:56.592Z,15.78
2018-09-10T01:50:25.270Z,15.60
2018-09-10T01:52:53.920Z,15.61
2018-09-10T01:55:22.581Z,15.56
2018-09-10T01:57:51.246Z,15.55
2018-09-10T02:00:19.940Z,15.60
2018-09-10T02:02:48.598Z,15.59
2018-09-10T02:05:17.276Z,15.46
2018-09-10T02:07:45.911Z,15.59
2018-09-10T02:10:14.692Z,15.72
2018-09-10T02:12:43.359Z,15.76
2018-09-10T02:15:12.007Z,15.73
2018-09-10T02:17:40.668Z,15.73
2018-09-10T02:20:09.427Z,15.71
2018-09-10T02:22:37.979Z,15.63
2018-09-10T02:25:07.095Z,15.74
2018-09-10T02:27:35.794Z,15.56
2018-09-10T02:30:04.990Z,15.55
2018-09-10T02:32:33.660Z,15.49
2018-09-10T02:35:02.328Z,15.56
2018-09-10T02:37:31.005Z,15.48
2018-09-10T02:39:59.685Z,15.42
2018-09-10T02:42:28.336Z,15.49
2018-09-10T02:44:57.012Z,15.42
2018-09-10T02:47:25.712Z,15.41
2018-09-10T02:49:54.492Z,15.45
2018-09-10T02:52:23.183Z,15.31
2018-09-10T02:54:52.770Z,15.42
2018-09-10T02:57:21.428Z,15.42
2018-09-10T02:59:50.113Z,15.44
2018-09-10T03:02:18.794Z,15.39
2018-09-10T03:04:47.428Z,15.24
2018-09-10T03:07:16.640Z,15.13
2018-09-10T03:09:45.640Z,15.22
2018-09-10T03:12:14.806Z,15.07
2018-09-10T03:14:43.502Z,15.12
2018-09-10T03:17:12.280Z,15.22
2018-09-10T03:19:41.101Z,15.14
2018-09-10T03:22:09.772Z,14.98
2018-09-10T03:24:38.491Z,15.00
2018-09-10T03:27:07.150Z,15.15
2018-09-10T03:29:35.795Z,15.08
2018-09-10T03:32:04.540Z,15.01
2018-09-10T03:34:33.228Z,15.01
2018-09-10T03:37:01.872Z,14.99
2018-09-10T03:39:30.572Z,14.98
2018-09-10T03:41:59.275Z,14.93
2018-09-10T03:44:27.962Z,14.92
2018-09-10T03:46:56.665Z,14.94
2018-09-10T03:49:25.366Z,14.87
2018-09-10T03:51:54.033Z,14.89
2018-09-10T03:54:22.759Z,14.96
2018-09-10T03:56:51.421Z,14.80
2018-09-10T03:59:20.411Z,14.72
2018-09-10T04:01:49.411Z,14.71
2018-09-10T04:04:18.260Z,14.78
2018-09-10T04:06:46.944Z,14.72
2018-09-10T04:09:15.620Z,14.79
2018-09-10T04:11:44.284Z,14.86
2018-09-10T04:14:13.100Z,14.93
2018-09-10T04:16:41.808Z,14.96
2018-09-10T04:19:10.484Z,14.99
2018-09-10T04:21:39.144Z,15.02
2018-09-10T04:24:07.846Z,15.08
2018-09-10T04:26:37.199Z,15.01
2018-09-10T04:29:05.871Z,15.06
2018-09-10T04:31:34.530Z,15.09
2018-09-10T04:34:03.204Z,15.14
2018-09-10T04:36:31.864Z,15.23
2018-09-10T04:39:00.732Z,15.21
2018-09-10T04:41:35.556Z,15.21
2018-09-10T04:44:04.653Z,15.17
2018-09-10T04:46:33.948Z,15.07
2018-09-10T04:49:02.697Z,15.17
2018-09-10T04:51:31.509Z,15.26
2018-09-10T04:54:00.309Z,15.06
2018-09-10T04:56:29.089Z,15.10
2018-09-10T04:58:58.488Z,15.01
2018-09-10T05:01:27.156Z,15.02
2018-09-10T05:03:55.859Z,15.01
2018-09-10T05:06:24.865Z,14.97
2018-09-10T05:08:53.535Z,14.87
2018-09-10T05:11:22.192Z,14.96
2018-09-10T05:13:50.861Z,14.88
2018-09-10T05:16:19.537Z,14.95
2018-09-10T05:18:48.281Z,15.07
2018-09-10T05:21:16.951Z,15.00
2018-09-10T05:23:45.651Z,15.09
2018-09-10T05:26:14.376Z,15.23
2018-09-10T05:28:43.063Z,15.27
2018-09-10T05:31:11.717Z,15.52
2018-09-10T05:33:40.371Z,15.67
2018-09-10T05:36:09.040Z,15.83
2018-09-10T05:38:37.710Z,15.89
2018-09-10T05:41:06.386Z,15.92
2018-09-10T05:43:35.061Z,16.04
2018-09-10T05:46:03.745Z,16.16
2018-09-10T05:48:32.415Z,16.07
2018-09-10T05:51:01.073Z,16.10
2018-09-10T05:53:29.764Z,16.28
2018-09-10T05:55:58.402Z,16.41
2018-09-10T05:58:27.081Z,16.59
2018-09-10T06:00:55.773Z,16.51
2018-09-10T06:03:24.464Z,16.41
2018-09-10T06:05:53.131Z,16.40
2018-09-10T06:08:21.848Z,16.43
2018-09-10T06:10:50.540Z,16.48
2018-09-10T06:13:19.215Z,16.44
2018-09-10T06:15:47.885Z,16.54
2018-09-10T06:18:16.542Z,16.57
2018-09-10T06:20:45.213Z,16.57
2018-09-10T06:23:13.970Z,16.73
2018-09-10T06:25:42.704Z,16.70
2018-09-10T06:28:11.410Z,16.76
2018-09-10T06:30:40.102Z,16.87
2018-09-10T06:33:08.896Z,16.87
2018-09-10T06:35:39.722Z,16.91
2018-09-10T06:38:09.005Z,16.93
2018-09-10T06:40:37.640Z,16.87
2018-09-10T06:43:06.504Z,17.02
2018-09-10T06:45:35.158Z,17.06
2018-09-10T06:48:03.878Z,17.10
2018-09-10T06:50:32.557Z,17.17
2018-09-10T06:53:01.242Z,17.26
2018-09-10T06:55:30.007Z,17.40
2018-09-10T06:57:58.783Z,17.64
2018-09-10T07:00:27.423Z,17.81
2018-09-10T07:02:56.077Z,17.98
2018-09-10T07:05:24.692Z,18.22
2018-09-10T07:07:53.442Z,18.66
2018-09-10T07:10:22.106Z,18.96
2018-09-10T07:12:53.043Z,19.00
2018-09-10T07:15:21.937Z,19.22
2018-09-10T07:17:51.417Z,19.44
2018-09-10T07:20:20.656Z,19.42
2018-09-10T07:22:49.804Z,19.39
2018-09-10T07:25:19.344Z,19.31
2018-09-10T07:27:48.156Z,19.18
2018-09-10T07:30:16.859Z,19.30
2018-09-10T07:32:45.589Z,19.24
2018-09-10T07:35:14.288Z,19.28
2018-09-10T07:37:43.025Z,19.41
2018-09-10T07:40:11.717Z,19.52
2018-09-10T07:42:40.461Z,19.59
2018-09-10T07:45:09.183Z,19.60
2018-09-10T07:47:38.144Z,19.65
2018-09-10T07:50:06.796Z,19.66
2018-09-10T07:52:36.527Z,19.69
2018-09-10T07:55:05.364Z,19.74
2018-09-10T07:57:34.028Z,19.83
2018-09-10T08:00:03.039Z,19.95
2018-09-10T08:02:31.728Z,20.02
2018-09-10T08:05:00.771Z,20.13
2018-09-10T08:07:29.449Z,20.33
2018-09-10T08:09:58.276Z,20.65
2018-09-10T08:12:27.317Z,20.89
2018-09-10T08:14:56.849Z,21.10
2018-09-10T08:17:25.785Z,21.11
2018-09-10T08:19:54.978Z,21.03
2018-09-10T08:22:23.993Z,21.04
2018-09-10T08:24:52.696Z,20.99
2018-09-10T08:27:21.393Z,21.03
2018-09-10T08:29:50.091Z,21.07
2018-09-10T08:32:18.765Z,21.08
2018-09-10T08:34:47.596Z,21.09
2018-09-10T08:37:17.425Z,21.25
2018-09-10T08:39:46.123Z,21.35
2018-09-10T08:42:14.811Z,21.32
2018-09-10T08:44:43.476Z,21.38
2018-09-10T08:47:12.145Z,21.53
2018-09-10T08:49:40.969Z,21.61
2018-09-10T08:52:09.612Z,21.54
2018-09-10T08:54:38.526Z,21.73
2018-09-10T08:57:07.094Z,21.82
2018-09-10T08:59:35.798Z,21.97
2018-09-10T09:02:04.476Z,21.95
2018-09-10T09:04:33.169Z,21.94
2018-09-10T09:07:01.834Z,22.10
2018-09-10T09:09:30.484Z,22.19
2018-09-10T09:11:59.277Z,22.24
2018-09-10T09:14:28.100Z,22.40
2018-09-10T09:16:56.806Z,22.11
2018-09-10T09:19:25.703Z,21.92
2018-09-10T09:21:54.348Z,22.01
2018-09-10T09:24:23.020Z,22.04
2018-09-10T09:26:51.793Z,22.02
2018-09-10T09:29:20.450Z,22.11
2018-09-10T09:31:49.138Z,22.17
2018-09-10T09:34:17.831Z,22.11
2018-09-10T09:36:52.014Z,21.99
2018-09-10T09:39:26.188Z,21.75
2018-09-10T09:42:00.213Z,21.92
2018-09-10T09:44:34.314Z,21.80
2018-09-10T09:47:03.028Z,21.57
2018-09-10T09:49:32.758Z,21.66
2018-09-10T09:52:02.212Z,21.82
2018-09-10T09:54:30.937Z,21.76
2018-09-10T09:56:59.723Z,21.67
2018-09-10T09:59:28.685Z,21.62
2018-09-10T10:02:02.762Z,21.58
2018-09-10T10:04:31.513Z,21.47
2018-09-10T10:07:00.242Z,21.32
2018-09-10T10:09:29.223Z,21.10
2018-09-10T10:11:58.722Z,21.17
2018-09-10T10:14:27.572Z,21.13
2018-09-10T10:16:56.271Z,21.13
2018-09-10T10:19:25.051Z,20.91
2018-09-10T10:21:53.776Z,20.92
2018-09-10T10:24:22.589Z,21.09
2018-09-10T10:26:51.806Z,21.11
2018-09-10T10:29:21.163Z,21.16
2018-09-10T10:31:49.816Z,21.16
2018-09-10T10:34:18.500Z,21.13
2018-09-10T10:36:47.956Z,20.75
2018-09-10T10:39:16.796Z,20.61
2018-09-10T10:41:45.421Z,20.80
2018-09-10T10:44:14.485Z,20.65
2018-09-10T10:46:43.154Z,20.66
2018-09-10T10:49:11.900Z,20.90
2018-09-10T10:51:41.309Z,20.83
2018-09-10T10:54:10.140Z,20.79
2018-09-10T10:56:38.771Z,20.68
2018-09-10T10:59:07.473Z,20.72
2018-09-10T11:01:36.153Z,20.57
2018-09-10T11:04:05.009Z,20.73
2018-09-10T11:06:34.202Z,20.72
2018-09-10T11:09:02.972Z,20.74
2018-09-10T11:11:31.712Z,20.87
2018-09-10T11:14:01.015Z,20.96
2018-09-10T11:16:29.721Z,20.96
2018-09-10T11:18:58.415Z,21.14
2018-09-10T11:21:27.084Z,21.07
2018-09-10T11:23:55.764Z,21.54
2018-09-10T11:26:24.690Z,21.70
2018-09-10T11:28:53.608Z,21.90
2018-09-10T11:31:22.291Z,22.28
2018-09-10T11:33:50.990Z,22.93
2018-09-10T11:36:20.169Z,23.46
2018-09-10T11:38:48.890Z,23.68
2018-09-10T11:41:17.616Z,23.09
2018-09-10T11:43:46.360Z,22.95
2018-09-10T11:46:15.069Z,23.25
2018-09-10T11:48:43.756Z,23.21
2018-09-10T11:51:12.420Z,23.13
2018-09-10T11:53:41.132Z,22.94
2018-09-10T11:56:10.190Z,22.82
2018-09-10T11:58:38.952Z,22.73
2018-09-10T12:01:07.621Z,22.83
2018-09-10T12:03:36.402Z,22.80
2018-09-10T12:06:05.064Z,23.08
2018-09-10T12:08:33.756Z,23.16
2018-09-10T12:11:02.415Z,23.15
2018-09-10T12:13:31.168Z,23.09
2018-09-10T12:15:59.880Z,23.18
2018-09-10T12:18:28.593Z,23.11
2018-09-10T12:20:57.350Z,23.14
2018-09-10T12:23:26.032Z,23.36
2018-09-10T12:25:54.743Z,23.25
2018-09-10T12:28:23.519Z,23.22
2018-09-10T12:30:52.221Z,23.24
2018-09-10T12:33:20.932Z,23.07
2018-09-10T12:35:49.678Z,22.93
2018-09-10T12:38:18.382Z,22.78
2018-09-10T12:40:47.125Z,22.84
2018-09-10T12:43:15.809Z,22.80
2018-09-10T12:45:44.500Z,22.86
2018-09-10T12:48:13.421Z,22.95
2018-09-10T12:50:42.113Z,22.80
2018-09-10T12:53:10.790Z,22.63
2018-09-10T12:55:39.455Z,22.47
2018-09-10T12:58:08.181Z,22.29
2018-09-10T13:00:36.863Z,22.39
2018-09-10T13:03:05.576Z,22.33
2018-09-10T13:05:34.246Z,22.08
2018-09-10T13:08:02.880Z,21.97
2018-09-10T13:10:31.654Z,22.17
2018-09-10T13:13:00.279Z,22.36
2018-09-10T13:15:28.952Z,22.32
2018-09-10T13:17:57.632Z,22.19
2018-09-10T13:20:26.364Z,22.35
2018-09-10T13:22:55.040Z,22.38
2018-09-10T13:25:23.781Z,22.36
2018-09-10T13:27:52.501Z,22.37
2018-09-10T13:30:21.294Z,22.44
2018-09-10T13:32:49.994Z,22.51
2018-09-10T13:35:18.756Z,22.51
2018-09-10T13:37:47.416Z,22.33
2018-09-10T13:40:16.136Z,22.38
2018-09-10T13:42:44.800Z,22.77
2018-09-10T13:45:13.508Z,23.39
2018-09-10T13:47:42.232Z,23.67
2018-09-10T13:50:10.955Z,23.76
2018-09-10T13:52:39.612Z,24.36
2018-09-10T13:55:08.261Z,24.71
2018-09-10T13:57:36.912Z,24.53
2018-09-10T14:00:05.731Z,24.50
2018-09-10T14:02:35.045Z,24.46
2018-09-10T14:05:03.813Z,24.47
2018-09-10T14:07:32.483Z,24.69
2018-09-10T14:10:01.220Z,24.62
2018-09-10T14:12:29.945Z,24.94
2018-09-10T14:14:58.596Z,24.65
2018-09-10T14:17:27.354Z,24.84
2018-09-10T14:19:56.300Z,24.93
2018-09-10T14:22:25.622Z,25.29
2018-09-10T14:24:54.302Z,25.47
2018-09-10T14:27:23.039Z,25.20
2018-09-10T14:29:51.824Z,25.34
2018-09-10T14:32:20.499Z,25.22
2018-09-10T14:34:49.859Z,25.05
2018-09-10T14:37:18.527Z,24.78
2018-09-10T14:39:47.220Z,24.72
2018-09-10T14:42:16.009Z,24.74
2018-09-10T14:44:44.621Z,24.65
2018-09-10T14:47:13.328Z,24.46
2018-09-10T14:49:42.213Z,24.33
2018-09-10T14:52:10.919Z,24.08
2018-09-10T14:54:39.646Z,23.68
2018-09-10T14:57:08.412Z,23.43
2018-09-10T14:59:37.096Z,23.40
2018-09-10T15:02:05.814Z,23.36
2018-09-10T15:04:34.510Z,22.96
2018-09-10T15:07:03.179Z,22.96
2018-09-10T15:09:31.904Z,22.90
2018-09-10T15:12:00.739Z,22.79
2018-09-10T15:14:29.520Z,22.80
2018-09-10T15:16:58.118Z,22.76
2018-09-10T15:19:26.788Z,22.80
2018-09-10T15:21:55.552Z,22.80
2018-09-10T15:24:24.286Z,22.75
2018-09-10T15:26:53.152Z,22.68
2018-09-10T15:29:21.816Z,22.64
2018-09-10T15:31:50.576Z,22.42
2018-09-10T15:34:19.262Z,22.23
2018-09-10T15:36:47.937Z,22.14
2018-09-10T15:39:16.686Z,22.16
2018-09-10T15:41:45.351Z,22.08
2018-09-10T15:44:14.064Z,21.96
2018-09-10T15:46:42.741Z,21.79
2018-09-10T15:49:11.486Z,21.73
2018-09-10T15:51:40.178Z,21.67
2018-09-10T15:54:08.839Z,21.61
2018-09-10T15:56:37.482Z,21.61
2018-09-10T15:59:06.211Z,21.58
2018-09-10T16:01:35.028Z,21.51
2018-09-10T16:04:03.688Z,21.46
2018-09-10T16:06:32.378Z,21.39
2018-09-10T16:09:01.032Z,21.31
2018-09-10T16:11:29.681Z,21.27
2018-09-10T16:13:58.997Z,21.17
2018-09-10T16:16:27.968Z,21.17
2018-09-10T16:19:00.216Z,21.16
2018-09-10T16:21:30.015Z,21.19
2018-09-10T16:23:59.280Z,21.07
2018-09-10T16:26:28.044Z,20.98
2018-09-10T16:28:56.780Z,20.93
2018-09-10T16:31:25.433Z,20.85
2018-09-10T16:33:54.111Z,20.86
2018-09-10T16:36:25.019Z,20.84
2018-09-10T16:38:53.709Z,20.71
2018-09-10T16:41:22.409Z,20.68
2018-09-10T16:43:51.190Z,20.65
2018-09-10T16:46:19.858Z,20.62
2018-09-10T16:48:48.652Z,20.76
2018-09-10T16:51:17.307Z,20.65
2018-09-10T16:53:46.028Z,20.58
2018-09-10T16:56:14.723Z,20.58
2018-09-10T16:58:43.376Z,20.59
2018-09-10T17:01:12.105Z,20.57
2018-09-10T17:03:40.984Z,20.64
2018-09-10T17:06:09.647Z,20.64
2018-09-10T17:08:38.408Z,20.50
2018-09-10T17:11:07.130Z,20.46
2018-09-10T17:13:35.914Z,20.40
2018-09-10T17:16:04.591Z,20.31
2018-09-10T17:18:33.276Z,20.29
2018-09-10T17:21:01.946Z,20.22
2018-09-10T17:23:30.672Z,20.13
2018-09-10T17:26:00.127Z,20.06
2018-09-10T17:28:28.788Z,20.10
2018-09-10T17:30:57.616Z,20.09
2018-09-10T17:33:26.330Z,20.32
2018-09-10T17:35:55.049Z,20.25
2018-09-10T17:38:23.724Z,20.04
2018-09-10T17:40:52.428Z,20.01
2018-09-10T17:43:21.178Z,19.89
2018-09-10T17:45:50.122Z,20.04
2018-09-10T17:48:18.792Z,20.10
2018-09-10T17:50:47.975Z,19.92
2018-09-10T17:53:16.754Z,19.89
2018-09-10T17:55:45.582Z,19.79
2018-09-10T17:58:14.328Z,19.84
2018-09-10T18:00:45.913Z,19.84
2018-09-10T18:03:14.700Z,19.72
2018-09-10T18:05:44.161Z,19.77
2018-09-10T18:08:13.381Z,19.82
2018-09-10T18:10:42.538Z,19.75
2018-09-10T18:13:11.242Z,19.72
2018-09-10T18:15:39.909Z,19.60
2018-09-10T18:18:08.594Z,19.80
2018-09-10T18:20:37.321Z,19.68
2018-09-10T18:23:05.992Z,19.76
2018-09-10T18:25:34.692Z,19.72
2018-09-10T18:28:03.430Z,19.76
2018-09-10T18:30:32.104Z,19.70
2018-09-10T18:33:00.892Z,19.72
2018-09-10T18:35:29.572Z,19.66
2018-09-10T18:37:58.294Z,19.66
2018-09-10T18:40:27.046Z,19.72
2018-09-10T18:42:57.318Z,19.73
2018-09-10T18:45:26.718Z,19.65
2018-09-10T18:48:00.496Z,19.58
2018-09-10T18:50:29.350Z,19.71
2018-09-10T18:52:58.490Z,19.63
2018-09-10T18:55:27.820Z,19.72
2018-09-10T18:57:56.777Z,19.70
2018-09-10T19:00:25.572Z,19.71
2018-09-10T19:02:54.273Z,19.68
2018-09-10T19:05:23.038Z,19.71
2018-09-10T19:07:52.316Z,19.73
2018-09-10T19:10:21.233Z,19.65
2018-09-10T19:12:49.961Z,19.67
2018-09-10T19:15:20.735Z,19.59
2018-09-10T19:17:50.405Z,19.50
2018-09-10T19:20:20.594Z,19.52
2018-09-10T19:22:49.306Z,19.55
2018-09-10T19:25:18.412Z,19.58
2018-09-10T19:27:47.358Z,19.56
2018-09-10T19:30:17.365Z,19.51
2018-09-10T19:32:46.362Z,19.44
2018-09-10T19:35:15.002Z,19.45
2018-09-10T19:37:43.749Z,19.45
2018-09-10T19:40:12.408Z,19.45
2018-09-10T19:42:41.102Z,19.50
2018-09-10T19:45:09.775Z,19.59
2018-09-10T19:47:38.455Z,19.63
2018-09-10T19:50:07.492Z,19.47
2018-09-10T19:52:36.187Z,19.50
2018-09-10T19:55:04.996Z,19.51
2018-09-10T19:57:33.754Z,19.45
2018-09-10T20:00:02.539Z,19.41
2018-09-10T20:02:32.041Z,19.39
2018-09-10T20:05:01.329Z,19.42
2018-09-10T20:07:30.072Z,19.33
2018-09-10T20:09:58.767Z,19.15
2018-09-10T20:12:27.448Z,19.14
2018-09-10T20:14:56.197Z,19.10
2018-09-10T20:17:24.916Z,18.85
2018-09-10T20:19:53.618Z,18.72
2018-09-10T20:22:22.416Z,18.63
2018-09-10T20:24:51.139Z,18.62
2018-09-10T20:27:19.813Z,18.66
2018-09-10T20:29:48.499Z,18.63
2018-09-10T20:32:17.206Z,18.62
2018-09-10T20:34:45.864Z,18.56
2018-09-10T20:37:14.540Z,18.26
2018-09-10T20:39:43.348Z,18.26
2018-09-10T20:42:11.948Z,18.29
2018-09-10T20:44:40.696Z,18.38
2018-09-10T20:47:09.442Z,18.32
2018-09-10T20:49:38.148Z,18.20
2018-09-10T20:52:06.972Z,18.13
2018-09-10T20:54:35.597Z,18.12
2018-09-10T20:57:04.275Z,18.12
2018-09-10T20:59:33.018Z,17.99
2018-09-10T21:02:01.710Z,18.02
2018-09-10T21:04:30.382Z,18.03
2018-09-10T21:06:59.060Z,17.91
2018-09-10T21:09:27.821Z,17.90
2018-09-10T21:11:56.548Z,17.90
2018-09-10T21:14:25.244Z,17.73
2018-09-10T21:16:53.901Z,17.79
2018-09-10T21:19:22.552Z,17.87
2018-09-10T21:21:51.191Z,17.85
2018-09-10T21:24:19.835Z,17.81
2018-09-10T21:26:48.591Z,17.92
2018-09-10T21:29:17.276Z,17.76
2018-09-10T21:31:46.254Z,17.75
2018-09-10T21:34:14.924Z,17.69
2018-09-10T21:36:43.601Z,17.62
2018-09-10T21:39:12.287Z,17.52
2018-09-10T21:41:41.088Z,17.58
2018-09-10T21:44:10.204Z,17.68
2018-09-10T21:46:38.860Z,17.67
2018-09-10T21:49:07.798Z,17.78
2018-09-10T21:51:36.815Z,17.69
2018-09-10T21:54:05.476Z,17.74
2018-09-10T21:56:34.145Z,17.70
2018-09-10T21:59:02.860Z,17.78
2018-09-10T22:01:31.570Z,17.65
2018-09-10T22:04:00.282Z,17.62
2018-09-10T22:06:29.017Z,17.51
2018-09-10T22:08:57.688Z,17.49
2018-09-10T22:11:26.389Z,17.55
2018-09-10T22:13:55.101Z,17.53
2018-09-10T22:16:24.342Z,17.56
2018-09-10T22:18:53.044Z,17.44
2018-09-10T22:21:21.860Z,17.30
2018-09-10T22:23:50.544Z,17.25
2018-09-10T22:26:19.273Z,17.28
2018-09-10T22:28:47.957Z,17.32
2018-09-10T22:31:16.656Z,17.37
2018-09-10T22:33:45.352Z,17.40
2018-09-10T22:36:14.124Z,17.44
2018-09-10T22:38:42.892Z,17.48
2018-09-10T22:41:11.781Z,17.40
2018-09-10T22:43:40.448Z,17.36
2018-09-10T22:46:09.102Z,17.37
2018-09-10T22:48:37.759Z,17.29
2018-09-10T22:51:06.484Z,17.43
2018-09-10T22:53:35.157Z,17.43
2018-09-10T22:56:03.796Z,17.40
2018-09-10T22:58:32.446Z,17.46
2018-09-10T23:01:01.123Z,17.48
2018-09-10T23:03:29.792Z,17.50
2018-09-10T23:05:58.682Z,17.37
2018-09-10T23:08:27.477Z,17.40
2018-09-10T23:10:56.107Z,17.29
2018-09-10T23:13:24.845Z,17.22
2018-09-10T23:15:53.668Z,17.06
2018-09-10T23:18:22.388Z,17.18
2018-09-10T23:20:51.048Z,17.07
2018-09-10T23:23:19.760Z,17.19
2018-09-10T23:25:48.436Z,17.35
2018-09-10T23:28:17.487Z,17.24
2018-09-10T23:30:46.136Z,17.24
2018-09-10T23:33:14.816Z,17.29
2018-09-10T23:35:43.541Z,17.19
2018-09-10T23:38:12.252Z,17.34
2018-09-10T23:40:41.192Z,17.35
2018-09-10T23:43:10.087Z,17.37
2018-09-10T23:45:38.773Z,17.24
2018-09-10T23:48:07.303Z,17.16
2018-09-10T23:50:35.991Z,17.25
2018-09-10T23:53:04.714Z,17.22
2018-09-10T23:55:33.414Z,17.23
2018-09-10T23:58:02.081Z,17.22
